This is the latest recevied weather packets stored in our database for station/object DL8TF-13. If no packets are shown the sender has not sent any weather packets the latest 10 day(s).
| Time | Temp. | Humidity | Pressure | Rain* | Wind** | Luminosity | Snow |
|---|---|---|---|---|---|---|---|
| 1777627409 | 16.67° C | 23% | 994 hPa | - | - | - | - |
| 1777626809 | 16.67° C | 24% | 994 hPa | - | - | - | - |
| 1777626209 | 16.11° C | 23% | 994 hPa | - | - | - | - |
| 1777625609 | 16.11° C | 23% | 994 hPa | - | - | - | - |
| 1777625009 | 15.56° C | 24% | 994 hPa | - | - | - | - |
| 1777624409 | 15.56° C | 24% | 994 hPa | - | - | - | - |
| 1777623809 | 15° C | 24% | 994 hPa | - | - | - | - |
| 1777623209 | 15° C | 24% | 994 hPa | - | - | - | - |
| 1777622609 | 14.44° C | 24% | 994 hPa | - | - | - | - |
| 1777622009 | 14.44° C | 26% | 994 hPa | - | - | - | - |
| 1777621409 | 14.44° C | 26% | 994 hPa | - | - | - | - |
| 1777620809 | 13.89° C | 26% | 994 hPa | - | - | - | - |
| 1777620209 | 13.89° C | 26% | 994 hPa | - | - | - | - |
| 1777619609 | 13.33° C | 27% | 994 hPa | - | - | - | - |
| 1777619009 | 13.33° C | 29% | 994 hPa | - | - | - | - |
| 1777618408 | 12.78° C | 29% | 994 hPa | - | - | - | - |
| 1777617808 | 11.67° C | 33% | 994 hPa | - | - | - | - |
| 1777617208 | 10.56° C | 38% | 994 hPa | - | - | - | - |
| 1777616608 | 9.44° C | 43% | 994 hPa | - | - | - | - |
| 1777616008 | 8.89° C | 46% | 994 hPa | - | - | - | - |
| 1777615408 | 8.33° C | 47% | 994 hPa | - | - | - | - |
| 1777614808 | 7.78° C | 51% | 994 hPa | - | - | - | - |
| 1777614208 | 7.22° C | 51% | 994 hPa | - | - | - | - |
| 1777613608 | 6.67° C | 52% | 994 hPa | - | - | - | - |
| 1777613008 | 6.67° C | 54% | 994 hPa | - | - | - | - |
* Rain since midnight (hover to see other rain measurements)
** Current wind speed in m/s (hover to see current wind gust speed)